Colby, KS (67701)

8:04 AM CDT on June 27, 2017 (GMT -0500)
145 E Cherry - K0FJ | | Change Station
Active Advisory: Dense Fog Advisory

Elev 3150 ft 39.39 °N, 101.05 °W | Updated 53 seconds ago

Fog
Fog
60.7 °F
Feels Like 60.7 °F
N
3.0
Wind Variable Wind from SSE
Gusts 4.0 mph

Today
High -- | Low -- °F
--% Chance of Precip.
Yesterday
High -- | Low -- °F
Precip. -- in
Pressure 30.02 in
Visibility 0.5 miles
Clouds Overcast 300 ft
Dew Point 59 °F
Humidity 95%
Rainfall 0.00 in
Snow Depth Not available.
6:19 AM 9:15 PM
Waxing Crescent, 16% visible
METAR KCBK 271255Z AUTO 14011KT 1/2SM FG OVC003 16/16 A3002 RMK AO2
Pressure 30.02 in
Visibility 0.5 miles
Clouds Overcast 300 ft
Dew Point 59 °F
Humidity 95%
Rainfall 0.00 in
Snow Depth Not available.
6:19 AM 9:15 PM
Waxing Crescent, 16% visible
METAR KCBK 271255Z AUTO 14011KT 1/2SM FG OVC003 16/16 A3002 RMK AO2

Get Your Daily Forecast Email!

Thanks for signing up!

Be on the lookout for a verification email in your inbox.

You'll start receiving severe weather alerts in your inbox..

×

10-Day Weather Forecast

Almanac

Astronomy

Jun. 27, 2017 Rise Set
Actual Time
Civil Twilight
Nautical Twilight
Astronomical Twilight
Moon
Length of Visible Light
Length of Day
Tomorrow will be .
, % of the Moon is Illuminated

Today's Extremes

State Highs State Lows

Community

WunderPhotos

Category 6

Welcome to Category 6. This is the collective home for Weather Underground's featured writeups by Dr. Jeff Masters (right), Bob Henson (left), Chris Burt, and other regular contributors.

Nearby

Air Quality

  Air Quality AQ Index Pollutant
Not available.

Snow Depth

Station Depth Elevation

Earthquake Activity

City Distance Mag. Time & Date
Minimum magnitude displayed is 2.5.

Coastal Water Temperatures

Place Temperature

Stations

Nearby Weather Stations

Station Location Temp. Windchill Dew Point Humidity Wind Precip. Elev Updated Type
                   

Watches & Warnings

Dense Fog Advisory
Issued: 7:28 AM CDT Jun. 27, 2017 – National Weather Service

... Dense fog advisory in effect until 9 am MDT /10 am CDT/ this
morning...

The National Weather Service in Goodland has issued a dense fog
advisory... which is in effect until 9 am MDT /10 am CDT/ this
morning.

* Timing/duration... areas of fog will continue through mid morning
across northwest Kansas and eastern Colorado.

* Visibilities... less than one quarter mile at times.

Precautionary/preparedness actions...

A dense fog advisory means visibility will frequently be one
quarter mile or less in fog. If driving... slow down and be
prepared for sudden drops in visibility... especially near
rivers... creeks and low lying areas. Use your headlights on low
beams and drive defensively.